Airport ID:KEDC
Update Time (UTC):25 NOV 17 05:37
Wind Speed (Knots):3
Wind Direction (Magnetic):210
Temperature (°C):10
Dew Point (°C):6
Humidity (%):75
Altimeter (inHg):29.89
Density Altitude (Feet):
Visibility (Miles):9
Clouds (Hundreds of feet):CLR
Present Weather:NO PRECIPITATION
METAR:METAR KEDC 250535Z AUTO 00000KT 9SM CLR 10/06 A2988 RMK AO2

The data displayed is for advisory purposes only and is not to be used for flight planning or operations.

This page is not automatically refreshed. Reload the page to see current data.